Toni Pires — CUPT7 — position and weather

sailwx.info

Track history (hours):
 
Tides and Currents Weather Stations Pressure Air Temp Water Temp Dewpoint Dewpoint Depression Visibility Wind Speed Wind Dir Waves Ship Positions

Toni Pires

Last reported at 2017-Oct-17 17:00 UTC. Time now 2017-Oct-17 17:17 UTC.
Position N 36°49' W 008°25'.

Length 26 m.

Type: Fishing. MMSI: 263578000.

Date/timePositionNaut miles runAvg speedWind from/ knotsBaromVisibWave heightAir tempDewpointWater temp
2017-Oct-17 17:00N 36°49' W 008°25'1 2.6
2017-Oct-17 16:30N 36°49' W 008°24'1 2.7
2017-Oct-17 16:00N 36°49' W 008°22'1 2.7
2017-Oct-17 15:30N 36°49' W 008°20'1 2.6
2017-Oct-17 15:00N 36°48' W 008°19'2 3.1
2017-Oct-17 14:30N 36°48' W 008°17'1 2.3
2017-Oct-17 14:00N 36°49' W 008°15'1 2.6
2017-Oct-17 13:30N 36°49' W 008°17'1 2.6
2017-Oct-17 13:00N 36°49' W 008°18'1 2.6
2017-Oct-17 12:30N 36°49' W 008°20'1 2.6
2017-Oct-17 11:57N 36°49' W 008°22'2 2.1
2017-Oct-17 11:13N 36°49' W 008°24'1 2.0
2017-Oct-17 10:57N 36°49' W 008°25'1 1.7
2017-Oct-17 10:21N 36°49' W 008°23'1 2.4
2017-Oct-17 09:57N 36°49' W 008°22'1 2.4
2017-Oct-17 09:27N 36°49' W 008°21'4 2.4
2017-Oct-17 07:57N 36°49' W 008°16'1 1.8
2017-Oct-17 07:15N 36°49' W 008°14'1 2.8
2017-Oct-17 06:55N 36°49' W 008°13'2 0.5
2017-Oct-17 03:16N 36°50' W 008°15'1 2.8
2017-Oct-17 02:59N 36°50' W 008°16'1 2.8
2017-Oct-17 02:30N 36°51' W 008°18'1 2.7
2017-Oct-17 02:00N 36°51' W 008°19'1 2.6
2017-Oct-17 01:30N 36°51' W 008°21'1 2.5
2017-Oct-17 01:00N 36°52' W 008°22'1 2.6
2017-Oct-17 00:30N 36°52' W 008°24'1 2.5
2017-Oct-17 00:00N 36°52' W 008°25'1 2.5
2017-Oct-16 23:30N 36°53' W 008°27'1 2.4
2017-Oct-16 23:00N 36°53' W 008°28'1 1.8
2017-Oct-16 22:30N 36°53' W 008°29'1 1.3
2017-Oct-16 22:00N 36°53' W 008°29'1 2.7
2017-Oct-16 21:30N 36°53' W 008°27'1 2.6
2017-Oct-16 21:00N 36°52' W 008°26'1 2.9
2017-Oct-16 20:30N 36°52' W 008°24'1 2.8
2017-Oct-16 20:00N 36°51' W 008°22'1 2.8
2017-Oct-16 19:28N 36°51' W 008°20'2 2.6
2017-Oct-16 18:46N 36°51' W 008°18'2 8.4
2017-Oct-16 18:30N 36°50' W 008°21'1 1.5
2017-Oct-16 17:57N 36°49' W 008°21'1 2.5
2017-Oct-16 17:30N 36°49' W 008°20'1 2.6
2017-Oct-16 17:00N 36°49' W 008°18'1 2.6
2017-Oct-16 16:25N 36°49' W 008°16'1 2.6
2017-Oct-16 15:59N 36°49' W 008°15'3 2.6
2017-Oct-16 14:56N 36°49' W 008°11'4 2.6
2017-Oct-16 13:25N 36°49' W 008°07'2 2.6
2017-Oct-16 12:28N 36°50' W 008°04'1 0.2
2017-Oct-16 07:48N 36°50' W 008°05'1 2.5
2017-Oct-16 07:30N 36°50' W 008°06'1 2.5
2017-Oct-16 07:00N 36°49' W 008°07'9 5.7
2017-Oct-16 05:30N 36°54' W 008°16'4 7.6
2017-Oct-16 05:00N 36°57' W 008°20'4 7.9
2017-Oct-16 04:30N 36°59' W 008°23'4 7.6
2017-Oct-16 04:00N 37°02' W 008°27'4 8.2
2017-Oct-16 03:29N 37°05' W 008°31'3 6.9
2017-Oct-16 03:00N 37°08' W 008°32'0 0.0
2017-Oct-16 02:25N 37°08' W 008°32'0 0.0
2017-Oct-16 01:58N 37°08' W 008°32'0 0.0
2017-Oct-16 01:29N 37°08' W 008°32'0 0.0
2017-Oct-16 00:56N 37°08' W 008°32'0 0.0
2017-Oct-16 00:30N 37°08' W 008°32'0 0.0
2017-Oct-15 23:56N 37°08' W 008°32'0 0.0
2017-Oct-15 23:23N 37°08' W 008°32'0 0.0
2017-Oct-15 22:59N 37°08' W 008°32'0 0.0
2017-Oct-15 22:30N 37°08' W 008°32'0 0.0
2017-Oct-15 21:56N 37°08' W 008°32'0 0.0
2017-Oct-15 21:25N 37°08' W 008°32'0 0.0
2017-Oct-15 20:50N 37°08' W 008°32'0 0.0
2017-Oct-15 20:29N 37°08' W 008°32'0 0.0
2017-Oct-15 19:57N 37°08' W 008°32'0 0.0
2017-Oct-15 19:28N 37°08' W 008°32'0 0.0
2017-Oct-15 18:58N 37°08' W 008°32'0 0.0
2017-Oct-15 18:30N 37°08' W 008°32'0 0.0
2017-Oct-15 18:00N 37°08' W 008°32'0 0.0
2017-Oct-15 17:30N 37°08' W 008°32'0 0.0
2017-Oct-15 16:59N 37°08' W 008°32'0 0.0
2017-Oct-15 16:30N 37°08' W 008°32'0 0.0
2017-Oct-15 15:59N 37°08' W 008°32'0 0.0
2017-Oct-15 15:29N 37°08' W 008°32'0 0.0
2017-Oct-15 15:00N 37°08' W 008°32'0 0.0
2017-Oct-15 13:55N 37°08' W 008°32'0 0.0
2017-Oct-15 13:21N 37°08' W 008°32'0 0.0
2017-Oct-15 12:51N 37°08' W 008°32'0 0.0
2017-Oct-15 12:24N 37°08' W 008°32'0 0.0
2017-Oct-15 11:55N 37°08' W 008°32'0 0.0
2017-Oct-15 11:30N 37°08' W 008°32'0 0.0
2017-Oct-15 10:58N 37°08' W 008°32'0 0.0
2017-Oct-15 10:30N 37°08' W 008°32'0 0.0
2017-Oct-15 09:57N 37°08' W 008°32'0 0.0
2017-Oct-15 09:30N 37°08' W 008°32'0 0.0
2017-Oct-15 08:57N 37°08' W 008°32'0 0.0
2017-Oct-15 08:29N 37°08' W 008°32'0 0.0
2017-Oct-15 07:58N 37°08' W 008°32'0 0.0
2017-Oct-15 07:29N 37°08' W 008°32'0 0.0
2017-Oct-15 06:59N 37°08' W 008°32'0 0.0
2017-Oct-15 06:27N 37°08' W 008°32'0 0.0
2017-Oct-15 05:53N 37°08' W 008°32'0 0.0
2017-Oct-15 05:25N 37°08' W 008°32'0 0.0
2017-Oct-15 04:52N 37°08' W 008°32'0 0.0
2017-Oct-15 04:15N 37°08' W 008°32'0 0.0
2017-Oct-15 04:00N 37°08' W 008°32'0 0.0
2017-Oct-15 03:24N 37°08' W 008°32'0 0.0
2017-Oct-15 02:51N 37°08' W 008°32'0 0.0
2017-Oct-15 02:26N 37°08' W 008°32'0 0.0
2017-Oct-15 01:53N 37°08' W 008°32'0 0.0
2017-Oct-15 01:29N 37°08' W 008°32'0 0.0
2017-Oct-15 00:55N 37°08' W 008°32'0 0.0
2017-Oct-15 00:23N 37°08' W 008°32'0 0.0
2017-Oct-14 02:10N 37°08' W 008°32'0 0.0
2017-Oct-14 01:55N 37°08' W 008°32'0 0.0
2017-Oct-14 01:27N 37°08' W 008°32'0 0.0
2017-Oct-14 00:56N 37°08' W 008°32'0 0.0
2017-Oct-14 00:26N 37°08' W 008°32'0 0.0
2017-Oct-14 00:00N 37°08' W 008°32'0 0.0
2017-Oct-13 23:29N 37°08' W 008°32'0 0.0
2017-Oct-13 22:53N 37°08' W 008°32'0 0.0
2017-Oct-13 22:27N 37°08' W 008°32'0 0.0
2017-Oct-13 21:52N 37°08' W 008°32'0 0.0
2017-Oct-13 21:29N 37°08' W 008°32'0 0.0
2017-Oct-13 20:59N 37°08' W 008°32'0 0.0
2017-Oct-13 20:17N 37°08' W 008°32'0 0.0
2017-Oct-13 18:57N 37°08' W 008°32'0 0.0
2017-Oct-13 18:24N 37°08' W 008°32'0 0.0
2017-Oct-13 17:49N 37°08' W 008°32'0 0.0
2017-Oct-13 17:30N 37°08' W 008°32'0 0.0
2017-Oct-13 16:06N 37°08' W 008°32'0 0.0
2017-Oct-13 16:00N 37°08' W 008°32'0 0.0
2017-Oct-13 14:11N 37°08' W 008°32'0 0.0
2017-Oct-13 13:59N 37°08' W 008°32'0 0.0
2017-Oct-13 13:23N 37°08' W 008°32'0 0.0
2017-Oct-13 12:52N 37°08' W 008°32'0 0.0
2017-Oct-13 12:23N 37°08' W 008°32'0 0.0
2017-Oct-13 11:58N 37°08' W 008°32'0 0.0
2017-Oct-13 11:27N 37°08' W 008°32'0 0.0
2017-Oct-13 10:57N 37°08' W 008°32'0 0.0
2017-Oct-13 10:28N 37°08' W 008°32'0 0.0
2017-Oct-13 09:33N 37°08' W 008°32'0 0.1
2017-Oct-13 09:27N 37°08' W 008°32'0 0.0
2017-Oct-13 07:47N 37°08' W 008°32'0 0.0
2017-Oct-13 07:26N 37°08' W 008°32'0 0.0
2017-Oct-13 06:59N 37°08' W 008°32'0 0.0
2017-Oct-12 22:19N 37°08' W 008°32'0 0.0
2017-Oct-12 21:40N 37°08' W 008°32'0 0.0
2017-Oct-12 21:28N 37°08' W 008°32'0 0.0
2017-Oct-12 20:02N 37°08' W 008°32'0 0.0
2017-Oct-12 18:16N 37°08' W 008°32'0 0.0
2017-Oct-12 17:57N 37°08' W 008°32'0 0.0
2017-Oct-12 17:26N 37°08' W 008°32'0 0.0
2017-Oct-12 16:55N 37°08' W 008°32'0 0.0
2017-Oct-12 16:24N 37°08' W 008°32'0 0.0
2017-Oct-12 15:58N 37°08' W 008°32'0 0.0
2017-Oct-12 15:30N 37°08' W 008°32'0 0.0
2017-Oct-12 14:57N 37°08' W 008°32'0 0.0
2017-Oct-12 14:27N 37°08' W 008°32'0 0.0
2017-Oct-12 13:43N 37°08' W 008°32'0 0.0
2017-Oct-12 13:25N 37°08' W 008°32'0 0.0
2017-Oct-12 12:58N 37°08' W 008°32'0 0.0
2017-Oct-12 12:30N 37°08' W 008°32'0 0.0
2017-Oct-12 11:54N 37°08' W 008°32'0 0.0
2017-Oct-12 11:30N 37°08' W 008°32'0 0.0
2017-Oct-12 10:58N 37°08' W 008°32'0 0.0
2017-Oct-12 09:58N 37°08' W 008°32'0 0.0
2017-Oct-12 09:20N 37°08' W 008°32'0 0.0
2017-Oct-12 08:59N 37°08' W 008°32'0 0.0
2017-Oct-12 08:29N 37°08' W 008°32'0 0.0
2017-Oct-12 07:43N 37°08' W 008°32'0 0.0
2017-Oct-12 06:59N 37°08' W 008°32'0 0.0
2017-Oct-12 06:15N 37°08' W 008°32'0 0.0
2017-Oct-12 02:09N 37°08' W 008°32'0 0.0
2017-Oct-12 01:53N 37°08' W 008°32'0 0.0
2017-Oct-11 22:45N 37°08' W 008°32'0 0.0
2017-Oct-11 20:33N 37°08' W 008°32'0 0.0
2017-Oct-10 23:50N 37°08' W 008°32'0 0.0
2017-Oct-10 23:29N 37°08' W 008°32'0 0.0
2017-Oct-10 22:58N 37°08' W 008°32'0 0.0
2017-Oct-10 22:25N 37°08' W 008°32'0 0.0
2017-Oct-10 21:53N 37°08' W 008°32'0 0.0
2017-Oct-10 21:29N 37°08' W 008°32'0 0.0
2017-Oct-10 20:54N 37°08' W 008°32'0 0.0
2017-Oct-10 18:21N 37°08' W 008°32'0 0.0
2017-Oct-10 17:58N 37°08' W 008°32'0 0.0
2017-Oct-10 16:48N 37°08' W 008°32'0 0.0
2017-Oct-10 15:29N 37°08' W 008°32'0 0.0
2017-Oct-10 14:58N 37°08' W 008°32'0 0.0
2017-Oct-10 12:14N 37°08' W 008°32'0 0.0
2017-Oct-10 11:55N 37°08' W 008°32'0 0.0
2017-Oct-10 11:10N 37°08' W 008°32'0 0.0
2017-Oct-10 10:43N 37°08' W 008°32'0 0.0
2017-Oct-10 10:09N 37°08' W 008°32'0 0.0
2017-Oct-10 09:47N 37°08' W 008°32'0 0.0
2017-Oct-10 09:30N 37°08' W 008°32'0 0.0
2017-Oct-10 08:53N 37°08' W 008°32'0 0.0
2017-Oct-10 08:26N 37°08' W 008°32'0 0.0
2017-Oct-10 07:58N 37°08' W 008°32'0 0.0
2017-Oct-10 07:03N 37°08' W 008°32'0 0.0
2017-Oct-10 07:00N 37°08' W 008°32'0 0.0
2017-Oct-10 06:20N 37°08' W 008°32'0 0.0
2017-Oct-10 06:00N 37°08' W 008°32'0 0.0
2017-Oct-10 05:29N 37°08' W 008°32'0 0.0
2017-Oct-10 03:11N 37°08' W 008°32'0 0.0
2017-Oct-10 02:59N 37°08' W 008°32'0 0.0
2017-Oct-10 02:26N 37°08' W 008°32'0 0.0
2017-Oct-10 01:39N 37°08' W 008°32'0 0.0
2017-Oct-09 22:08N 37°08' W 008°32'0 0.0
2017-Oct-09 21:39N 37°08' W 008°32'0 0.0
2017-Oct-09 21:27N 37°08' W 008°32'0 0.0
2017-Oct-09 21:00N 37°08' W 008°32'0 0.0
2017-Oct-09 20:24N 37°08' W 008°32'0 0.0
2017-Oct-09 19:56N 37°08' W 008°32'0 0.0
2017-Oct-09 19:28N 37°08' W 008°32'0 0.0
2017-Oct-09 18:57N 37°08' W 008°32'0 0.0
2017-Oct-09 18:30N 37°08' W 008°32'0 0.0
2017-Oct-09 18:00N 37°08' W 008°32'0 0.0
2017-Oct-09 17:28N 37°08' W 008°32'0 0.0
2017-Oct-09 16:58N 37°08' W 008°32'0 0.0
2017-Oct-09 16:27N 37°08' W 008°32'0 0.0
2017-Oct-09 15:55N 37°08' W 008°32'0 0.0
2017-Oct-09 15:29N 37°08' W 008°32'0 0.0
2017-Oct-09 14:57N 37°08' W 008°32'0 0.0
2017-Oct-09 14:30N 37°08' W 008°32'0 0.0
2017-Oct-09 13:57N 37°08' W 008°32'0 0.0
2017-Oct-09 13:30N 37°08' W 008°32'0 0.0
2017-Oct-09 12:59N 37°08' W 008°32'0 0.0
2017-Oct-09 12:28N 37°08' W 008°32'0 0.0
2017-Oct-09 12:00N 37°08' W 008°32'0 0.0
2017-Oct-09 11:30N 37°08' W 008°32'0 0.0
2017-Oct-09 10:58N 37°08' W 008°32'0 0.0
2017-Oct-09 10:30N 37°08' W 008°32'0 0.0
2017-Oct-09 09:53N 37°08' W 008°32'0 0.0
2017-Oct-09 09:29N 37°08' W 008°32'0 0.0
2017-Oct-09 08:58N 37°08' W 008°32'0 0.0
2017-Oct-09 08:27N 37°08' W 008°32'0 0.0
2017-Oct-09 08:00N 37°08' W 008°32'0 0.0
2017-Oct-09 07:27N 37°08' W 008°32'0 0.0
2017-Oct-09 06:58N 37°08' W 008°32'0 0.0
2017-Oct-09 06:29N 37°08' W 008°32'0 0.0
2017-Oct-09 05:59N 37°08' W 008°32'0 0.0
2017-Oct-09 05:30N 37°08' W 008°32'0 0.0
2017-Oct-09 04:58N 37°08' W 008°32'0 0.0
2017-Oct-09 04:25N 37°08' W 008°32'0 0.0
2017-Oct-09 03:58N 37°08' W 008°32'0 0.0
2017-Oct-09 03:28N 37°08' W 008°32'0 0.0
2017-Oct-09 02:57N 37°08' W 008°32'0 0.0
2017-Oct-09 02:30N 37°08' W 008°32'0 0.0
2017-Oct-09 02:00N 37°08' W 008°32'0 0.0
2017-Oct-09 01:29N 37°08' W 008°32'0 0.0
2017-Oct-09 00:57N 37°08' W 008°32'0 0.0
2017-Oct-09 00:30N 37°08' W 008°32'0 0.0
2017-Oct-09 00:00N 37°08' W 008°32'0 0.0
2017-Oct-08 23:27N 37°08' W 008°32'0 0.0
2017-Oct-08 22:59N 37°08' W 008°32'0 0.0
2017-Oct-08 22:28N 37°08' W 008°32'0 0.0
2017-Oct-08 21:58N 37°08' W 008°32'0 0.0
2017-Oct-08 21:23N 37°08' W 008°32'0 0.0
2017-Oct-08 12:16N 37°08' W 008°32'0 0.0
2017-Oct-08 11:53N 37°08' W 008°32'0 0.0
2017-Oct-08 11:25N 37°08' W 008°32'0 0.0
2017-Oct-08 10:59N 37°08' W 008°32'0 0.0
2017-Oct-08 10:20N 37°08' W 008°32'0 0.0
2017-Oct-08 09:34N 37°08' W 008°32'0 0.0
2017-Oct-08 09:02N 37°08' W 008°32'0 0.0
2017-Oct-08 08:38N 37°08' W 008°32'0 0.0
2017-Oct-08 08:26N 37°08' W 008°32'0 0.0
2017-Oct-08 07:55N 37°08' W 008°32'0 0.0
2017-Oct-08 07:28N 37°08' W 008°32'0 0.0
2017-Oct-08 07:00N 37°08' W 008°32'0 0.0
2017-Oct-08 06:30N 37°08' W 008°32'0 0.0
2017-Oct-08 05:55N 37°08' W 008°32'0 0.0
2017-Oct-08 05:30N 37°08' W 008°32'0 0.0
2017-Oct-08 04:57N 37°08' W 008°32'0 0.0
2017-Oct-08 04:29N 37°08' W 008°32'0 0.0
2017-Oct-08 03:44N 37°08' W 008°32'0 0.0
2017-Oct-08 03:27N 37°08' W 008°32'0 0.0
2017-Oct-08 03:00N 37°08' W 008°32'0 0.0
2017-Oct-08 02:25N 37°08' W 008°32'0 0.0
2017-Oct-08 01:58N 37°08' W 008°32'0 0.0
2017-Oct-08 01:25N 37°08' W 008°32'0 0.0
2017-Oct-08 00:58N 37°08' W 008°32'0 0.0
2017-Oct-08 00:30N 37°08' W 008°32'0 0.0
2017-Oct-07 23:57N 37°08' W 008°32'0 0.0
2017-Oct-07 23:29N 37°08' W 008°32'0 0.0
2017-Oct-07 22:58N 37°08' W 008°32'0 0.0
2017-Oct-07 22:28N 37°08' W 008°32'0 0.0
2017-Oct-07 21:54N 37°08' W 008°32'0 0.0
2017-Oct-07 21:29N 37°08' W 008°32'0 0.0
2017-Oct-07 20:58N 37°08' W 008°32'0 0.0
2017-Oct-07 20:23N 37°08' W 008°32'0 0.0
2017-Oct-07 20:00N 37°08' W 008°32'0 0.0
2017-Oct-07 19:23N 37°08' W 008°32'0 0.0
2017-Oct-07 18:56N 37°08' W 008°32'0 0.0
2017-Oct-07 18:26N 37°08' W 008°32'0 0.0
2017-Oct-07 17:55N 37°08' W 008°32'0 0.0
2017-Oct-07 17:30N 37°08' W 008°32'  
Track history (hours):
 
Tides and Currents Weather Stations Pressure Air Temp Water Temp Dewpoint Dewpoint Depression Visibility Wind Speed Wind Dir Waves Ship Positions

Toni Pires

Last reported at 2017-Oct-17 17:00 UTC. Time now 2017-Oct-17 17:17 UTC.
Position N 36°49' W 008°25'.

Length 26 m.

Type: Fishing. MMSI: 263578000.

Date/timePositionNaut miles runAvg speedWind from/ knotsBaromVisibWave heightAir tempDewpointWater temp
2017-Oct-17 17:00N 36°49' W 008°25'1 2.6
2017-Oct-17 16:30N 36°49' W 008°24'1 2.7
2017-Oct-17 16:00N 36°49' W 008°22'1 2.7
2017-Oct-17 15:30N 36°49' W 008°20'1 2.6
2017-Oct-17 15:00N 36°48' W 008°19'2 3.1
2017-Oct-17 14:30N 36°48' W 008°17'1 2.3
2017-Oct-17 14:00N 36°49' W 008°15'1 2.6
2017-Oct-17 13:30N 36°49' W 008°17'1 2.6
2017-Oct-17 13:00N 36°49' W 008°18'1 2.6
2017-Oct-17 12:30N 36°49' W 008°20'1 2.6
2017-Oct-17 11:57N 36°49' W 008°22'2 2.1
2017-Oct-17 11:13N 36°49' W 008°24'1 2.0
2017-Oct-17 10:57N 36°49' W 008°25'1 1.7
2017-Oct-17 10:21N 36°49' W 008°23'1 2.4
2017-Oct-17 09:57N 36°49' W 008°22'1 2.4
2017-Oct-17 09:27N 36°49' W 008°21'4 2.4
2017-Oct-17 07:57N 36°49' W 008°16'1 1.8
2017-Oct-17 07:15N 36°49' W 008°14'1 2.8
2017-Oct-17 06:55N 36°49' W 008°13'2 0.5
2017-Oct-17 03:16N 36°50' W 008°15'1 2.8
2017-Oct-17 02:59N 36°50' W 008°16'1 2.8
2017-Oct-17 02:30N 36°51' W 008°18'1 2.7
2017-Oct-17 02:00N 36°51' W 008°19'1 2.6
2017-Oct-17 01:30N 36°51' W 008°21'1 2.5
2017-Oct-17 01:00N 36°52' W 008°22'1 2.6
2017-Oct-17 00:30N 36°52' W 008°24'1 2.5
2017-Oct-17 00:00N 36°52' W 008°25'1 2.5
2017-Oct-16 23:30N 36°53' W 008°27'1 2.4
2017-Oct-16 23:00N 36°53' W 008°28'1 1.8
2017-Oct-16 22:30N 36°53' W 008°29'1 1.3
2017-Oct-16 22:00N 36°53' W 008°29'1 2.7
2017-Oct-16 21:30N 36°53' W 008°27'1 2.6
2017-Oct-16 21:00N 36°52' W 008°26'1 2.9
2017-Oct-16 20:30N 36°52' W 008°24'1 2.8
2017-Oct-16 20:00N 36°51' W 008°22'1 2.8
2017-Oct-16 19:28N 36°51' W 008°20'2 2.6
2017-Oct-16 18:46N 36°51' W 008°18'2 8.4
2017-Oct-16 18:30N 36°50' W 008°21'1 1.5
2017-Oct-16 17:57N 36°49' W 008°21'1 2.5
2017-Oct-16 17:30N 36°49' W 008°20'1 2.6
2017-Oct-16 17:00N 36°49' W 008°18'1 2.6
2017-Oct-16 16:25N 36°49' W 008°16'1 2.6
2017-Oct-16 15:59N 36°49' W 008°15'3 2.6
2017-Oct-16 14:56N 36°49' W 008°11'4 2.6
2017-Oct-16 13:25N 36°49' W 008°07'2 2.6
2017-Oct-16 12:28N 36°50' W 008°04'1 0.2
2017-Oct-16 07:48N 36°50' W 008°05'1 2.5
2017-Oct-16 07:30N 36°50' W 008°06'1 2.5
2017-Oct-16 07:00N 36°49' W 008°07'9 5.7
2017-Oct-16 05:30N 36°54' W 008°16'4 7.6
2017-Oct-16 05:00N 36°57' W 008°20'4 7.9
2017-Oct-16 04:30N 36°59' W 008°23'4 7.6
2017-Oct-16 04:00N 37°02' W 008°27'4 8.2
2017-Oct-16 03:29N 37°05' W 008°31'3 6.9
2017-Oct-16 03:00N 37°08' W 008°32'0 0.0
2017-Oct-16 02:25N 37°08' W 008°32'0 0.0
2017-Oct-16 01:58N 37°08' W 008°32'0 0.0
2017-Oct-16 01:29N 37°08' W 008°32'0 0.0
2017-Oct-16 00:56N 37°08' W 008°32'0 0.0
2017-Oct-16 00:30N 37°08' W 008°32'0 0.0
2017-Oct-15 23:56N 37°08' W 008°32'0 0.0
2017-Oct-15 23:23N 37°08' W 008°32'0 0.0
2017-Oct-15 22:59N 37°08' W 008°32'0 0.0
2017-Oct-15 22:30N 37°08' W 008°32'0 0.0
2017-Oct-15 21:56N 37°08' W 008°32'0 0.0
2017-Oct-15 21:25N 37°08' W 008°32'0 0.0
2017-Oct-15 20:50N 37°08' W 008°32'0 0.0
2017-Oct-15 20:29N 37°08' W 008°32'0 0.0
2017-Oct-15 19:57N 37°08' W 008°32'0 0.0
2017-Oct-15 19:28N 37°08' W 008°32'0 0.0
2017-Oct-15 18:58N 37°08' W 008°32'0 0.0
2017-Oct-15 18:30N 37°08' W 008°32'0 0.0
2017-Oct-15 18:00N 37°08' W 008°32'0 0.0
2017-Oct-15 17:30N 37°08' W 008°32'0 0.0
2017-Oct-15 16:59N 37°08' W 008°32'0 0.0
2017-Oct-15 16:30N 37°08' W 008°32'0 0.0
2017-Oct-15 15:59N 37°08' W 008°32'0 0.0
2017-Oct-15 15:29N 37°08' W 008°32'0 0.0
2017-Oct-15 15:00N 37°08' W 008°32'0 0.0
2017-Oct-15 13:55N 37°08' W 008°32'0 0.0
2017-Oct-15 13:21N 37°08' W 008°32'0 0.0
2017-Oct-15 12:51N 37°08' W 008°32'0 0.0
2017-Oct-15 12:24N 37°08' W 008°32'0 0.0
2017-Oct-15 11:55N 37°08' W 008°32'0 0.0
2017-Oct-15 11:30N 37°08' W 008°32'0 0.0
2017-Oct-15 10:58N 37°08' W 008°32'0 0.0
2017-Oct-15 10:30N 37°08' W 008°32'0 0.0
2017-Oct-15 09:57N 37°08' W 008°32'0 0.0
2017-Oct-15 09:30N 37°08' W 008°32'0 0.0
2017-Oct-15 08:57N 37°08' W 008°32'0 0.0
2017-Oct-15 08:29N 37°08' W 008°32'0 0.0
2017-Oct-15 07:58N 37°08' W 008°32'0 0.0
2017-Oct-15 07:29N 37°08' W 008°32'0 0.0
2017-Oct-15 06:59N 37°08' W 008°32'0 0.0
2017-Oct-15 06:27N 37°08' W 008°32'0 0.0
2017-Oct-15 05:53N 37°08' W 008°32'0 0.0
2017-Oct-15 05:25N 37°08' W 008°32'0 0.0
2017-Oct-15 04:52N 37°08' W 008°32'0 0.0
2017-Oct-15 04:15N 37°08' W 008°32'0 0.0
2017-Oct-15 04:00N 37°08' W 008°32'0 0.0
2017-Oct-15 03:24N 37°08' W 008°32'0 0.0
2017-Oct-15 02:51N 37°08' W 008°32'0 0.0
2017-Oct-15 02:26N 37°08' W 008°32'0 0.0
2017-Oct-15 01:53N 37°08' W 008°32'0 0.0
2017-Oct-15 01:29N 37°08' W 008°32'0 0.0
2017-Oct-15 00:55N 37°08' W 008°32'0 0.0
2017-Oct-15 00:23N 37°08' W 008°32'0 0.0
2017-Oct-14 02:10N 37°08' W 008°32'0 0.0
2017-Oct-14 01:55N 37°08' W 008°32'0 0.0
2017-Oct-14 01:27N 37°08' W 008°32'0 0.0
2017-Oct-14 00:56N 37°08' W 008°32'0 0.0
2017-Oct-14 00:26N 37°08' W 008°32'0 0.0
2017-Oct-14 00:00N 37°08' W 008°32'0 0.0
2017-Oct-13 23:29N 37°08' W 008°32'0 0.0
2017-Oct-13 22:53N 37°08' W 008°32'0 0.0
2017-Oct-13 22:27N 37°08' W 008°32'0 0.0
2017-Oct-13 21:52N 37°08' W 008°32'0 0.0
2017-Oct-13 21:29N 37°08' W 008°32'0 0.0
2017-Oct-13 20:59N 37°08' W 008°32'0 0.0
2017-Oct-13 20:17N 37°08' W 008°32'0 0.0
2017-Oct-13 18:57N 37°08' W 008°32'0 0.0
2017-Oct-13 18:24N 37°08' W 008°32'0 0.0
2017-Oct-13 17:49N 37°08' W 008°32'0 0.0
2017-Oct-13 17:30N 37°08' W 008°32'0 0.0
2017-Oct-13 16:06N 37°08' W 008°32'0 0.0
2017-Oct-13 16:00N 37°08' W 008°32'0 0.0
2017-Oct-13 14:11N 37°08' W 008°32'0 0.0
2017-Oct-13 13:59N 37°08' W 008°32'0 0.0
2017-Oct-13 13:23N 37°08' W 008°32'0 0.0
2017-Oct-13 12:52N 37°08' W 008°32'0 0.0
2017-Oct-13 12:23N 37°08' W 008°32'0 0.0
2017-Oct-13 11:58N 37°08' W 008°32'0 0.0
2017-Oct-13 11:27N 37°08' W 008°32'0 0.0
2017-Oct-13 10:57N 37°08' W 008°32'0 0.0
2017-Oct-13 10:28N 37°08' W 008°32'0 0.0
2017-Oct-13 09:33N 37°08' W 008°32'0 0.1
2017-Oct-13 09:27N 37°08' W 008°32'0 0.0
2017-Oct-13 07:47N 37°08' W 008°32'0 0.0
2017-Oct-13 07:26N 37°08' W 008°32'0 0.0
2017-Oct-13 06:59N 37°08' W 008°32'0 0.0
2017-Oct-12 22:19N 37°08' W 008°32'0 0.0
2017-Oct-12 21:40N 37°08' W 008°32'0 0.0
2017-Oct-12 21:28N 37°08' W 008°32'0 0.0
2017-Oct-12 20:02N 37°08' W 008°32'0 0.0
2017-Oct-12 18:16N 37°08' W 008°32'0 0.0
2017-Oct-12 17:57N 37°08' W 008°32'0 0.0
2017-Oct-12 17:26N 37°08' W 008°32'0 0.0
2017-Oct-12 16:55N 37°08' W 008°32'0 0.0
2017-Oct-12 16:24N 37°08' W 008°32'0 0.0
2017-Oct-12 15:58N 37°08' W 008°32'0 0.0
2017-Oct-12 15:30N 37°08' W 008°32'0 0.0
2017-Oct-12 14:57N 37°08' W 008°32'0 0.0
2017-Oct-12 14:27N 37°08' W 008°32'0 0.0
2017-Oct-12 13:43N 37°08' W 008°32'0 0.0
2017-Oct-12 13:25N 37°08' W 008°32'0 0.0
2017-Oct-12 12:58N 37°08' W 008°32'0 0.0
2017-Oct-12 12:30N 37°08' W 008°32'0 0.0
2017-Oct-12 11:54N 37°08' W 008°32'0 0.0
2017-Oct-12 11:30N 37°08' W 008°32'0 0.0
2017-Oct-12 10:58N 37°08' W 008°32'0 0.0
2017-Oct-12 09:58N 37°08' W 008°32'0 0.0
2017-Oct-12 09:20N 37°08' W 008°32'0 0.0
2017-Oct-12 08:59N 37°08' W 008°32'0 0.0
2017-Oct-12 08:29N 37°08' W 008°32'0 0.0
2017-Oct-12 07:43N 37°08' W 008°32'0 0.0
2017-Oct-12 06:59N 37°08' W 008°32'0 0.0
2017-Oct-12 06:15N 37°08' W 008°32'0 0.0
2017-Oct-12 02:09N 37°08' W 008°32'0 0.0
2017-Oct-12 01:53N 37°08' W 008°32'0 0.0
2017-Oct-11 22:45N 37°08' W 008°32'0 0.0
2017-Oct-11 20:33N 37°08' W 008°32'0 0.0
2017-Oct-10 23:50N 37°08' W 008°32'0 0.0
2017-Oct-10 23:29N 37°08' W 008°32'0 0.0
2017-Oct-10 22:58N 37°08' W 008°32'0 0.0
2017-Oct-10 22:25N 37°08' W 008°32'0 0.0
2017-Oct-10 21:53N 37°08' W 008°32'0 0.0
2017-Oct-10 21:29N 37°08' W 008°32'0 0.0
2017-Oct-10 20:54N 37°08' W 008°32'0 0.0
2017-Oct-10 18:21N 37°08' W 008°32'0 0.0
2017-Oct-10 17:58N 37°08' W 008°32'0 0.0
2017-Oct-10 16:48N 37°08' W 008°32'0 0.0
2017-Oct-10 15:29N 37°08' W 008°32'0 0.0
2017-Oct-10 14:58N 37°08' W 008°32'0 0.0
2017-Oct-10 12:14N 37°08' W 008°32'0 0.0
2017-Oct-10 11:55N 37°08' W 008°32'0 0.0
2017-Oct-10 11:10N 37°08' W 008°32'0 0.0
2017-Oct-10 10:43N 37°08' W 008°32'0 0.0
2017-Oct-10 10:09N 37°08' W 008°32'0 0.0
2017-Oct-10 09:47N 37°08' W 008°32'0 0.0
2017-Oct-10 09:30N 37°08' W 008°32'0 0.0
2017-Oct-10 08:53N 37°08' W 008°32'0 0.0
2017-Oct-10 08:26N 37°08' W 008°32'0 0.0
2017-Oct-10 07:58N 37°08' W 008°32'0 0.0
2017-Oct-10 07:03N 37°08' W 008°32'0 0.0
2017-Oct-10 07:00N 37°08' W 008°32'0 0.0
2017-Oct-10 06:20N 37°08' W 008°32'0 0.0
2017-Oct-10 06:00N 37°08' W 008°32'0 0.0
2017-Oct-10 05:29N 37°08' W 008°32'0 0.0
2017-Oct-10 03:11N 37°08' W 008°32'0 0.0
2017-Oct-10 02:59N 37°08' W 008°32'0 0.0
2017-Oct-10 02:26N 37°08' W 008°32'0 0.0
2017-Oct-10 01:39N 37°08' W 008°32'0 0.0
2017-Oct-09 22:08N 37°08' W 008°32'0 0.0
2017-Oct-09 21:39N 37°08' W 008°32'0 0.0
2017-Oct-09 21:27N 37°08' W 008°32'0 0.0
2017-Oct-09 21:00N 37°08' W 008°32'0 0.0
2017-Oct-09 20:24N 37°08' W 008°32'0 0.0
2017-Oct-09 19:56N 37°08' W 008°32'0 0.0
2017-Oct-09 19:28N 37°08' W 008°32'0 0.0
2017-Oct-09 18:57N 37°08' W 008°32'0 0.0
2017-Oct-09 18:30N 37°08' W 008°32'0 0.0
2017-Oct-09 18:00N 37°08' W 008°32'0 0.0
2017-Oct-09 17:28N 37°08' W 008°32'0 0.0
2017-Oct-09 16:58N 37°08' W 008°32'0 0.0
2017-Oct-09 16:27N 37°08' W 008°32'0 0.0
2017-Oct-09 15:55N 37°08' W 008°32'0 0.0
2017-Oct-09 15:29N 37°08' W 008°32'0 0.0
2017-Oct-09 14:57N 37°08' W 008°32'0 0.0
2017-Oct-09 14:30N 37°08' W 008°32'0 0.0
2017-Oct-09 13:57N 37°08' W 008°32'0 0.0
2017-Oct-09 13:30N 37°08' W 008°32'0 0.0
2017-Oct-09 12:59N 37°08' W 008°32'0 0.0
2017-Oct-09 12:28N 37°08' W 008°32'0 0.0
2017-Oct-09 12:00N 37°08' W 008°32'0 0.0
2017-Oct-09 11:30N 37°08' W 008°32'0 0.0
2017-Oct-09 10:58N 37°08' W 008°32'0 0.0
2017-Oct-09 10:30N 37°08' W 008°32'0 0.0
2017-Oct-09 09:53N 37°08' W 008°32'0 0.0
2017-Oct-09 09:29N 37°08' W 008°32'0 0.0
2017-Oct-09 08:58N 37°08' W 008°32'0 0.0
2017-Oct-09 08:27N 37°08' W 008°32'0 0.0
2017-Oct-09 08:00N 37°08' W 008°32'0 0.0
2017-Oct-09 07:27N 37°08' W 008°32'0 0.0
2017-Oct-09 06:58N 37°08' W 008°32'0 0.0
2017-Oct-09 06:29N 37°08' W 008°32'0 0.0
2017-Oct-09 05:59N 37°08' W 008°32'0 0.0
2017-Oct-09 05:30N 37°08' W 008°32'0 0.0
2017-Oct-09 04:58N 37°08' W 008°32'0 0.0
2017-Oct-09 04:25N 37°08' W 008°32'0 0.0
2017-Oct-09 03:58N 37°08' W 008°32'0 0.0
2017-Oct-09 03:28N 37°08' W 008°32'0 0.0
2017-Oct-09 02:57N 37°08' W 008°32'0 0.0
2017-Oct-09 02:30N 37°08' W 008°32'0 0.0
2017-Oct-09 02:00N 37°08' W 008°32'0 0.0
2017-Oct-09 01:29N 37°08' W 008°32'0 0.0
2017-Oct-09 00:57N 37°08' W 008°32'0 0.0
2017-Oct-09 00:30N 37°08' W 008°32'0 0.0
2017-Oct-09 00:00N 37°08' W 008°32'0 0.0
2017-Oct-08 23:27N 37°08' W 008°32'0 0.0
2017-Oct-08 22:59N 37°08' W 008°32'0 0.0
2017-Oct-08 22:28N 37°08' W 008°32'0 0.0
2017-Oct-08 21:58N 37°08' W 008°32'0 0.0
2017-Oct-08 21:23N 37°08' W 008°32'0 0.0
2017-Oct-08 12:16N 37°08' W 008°32'0 0.0
2017-Oct-08 11:53N 37°08' W 008°32'0 0.0
2017-Oct-08 11:25N 37°08' W 008°32'0 0.0
2017-Oct-08 10:59N 37°08' W 008°32'0 0.0
2017-Oct-08 10:20N 37°08' W 008°32'0 0.0
2017-Oct-08 09:34N 37°08' W 008°32'0 0.0
2017-Oct-08 09:02N 37°08' W 008°32'0 0.0
2017-Oct-08 08:38N 37°08' W 008°32'0 0.0
2017-Oct-08 08:26N 37°08' W 008°32'0 0.0
2017-Oct-08 07:55N 37°08' W 008°32'0 0.0
2017-Oct-08 07:28N 37°08' W 008°32'0 0.0
2017-Oct-08 07:00N 37°08' W 008°32'0 0.0
2017-Oct-08 06:30N 37°08' W 008°32'0 0.0
2017-Oct-08 05:55N 37°08' W 008°32'0 0.0
2017-Oct-08 05:30N 37°08' W 008°32'0 0.0
2017-Oct-08 04:57N 37°08' W 008°32'0 0.0
2017-Oct-08 04:29N 37°08' W 008°32'0 0.0
2017-Oct-08 03:44N 37°08' W 008°32'0 0.0
2017-Oct-08 03:27N 37°08' W 008°32'0 0.0
2017-Oct-08 03:00N 37°08' W 008°32'0 0.0
2017-Oct-08 02:25N 37°08' W 008°32'0 0.0
2017-Oct-08 01:58N 37°08' W 008°32'0 0.0
2017-Oct-08 01:25N 37°08' W 008°32'0 0.0
2017-Oct-08 00:58N 37°08' W 008°32'0 0.0
2017-Oct-08 00:30N 37°08' W 008°32'0 0.0
2017-Oct-07 23:57N 37°08' W 008°32'0 0.0
2017-Oct-07 23:29N 37°08' W 008°32'0 0.0
2017-Oct-07 22:58N 37°08' W 008°32'0 0.0
2017-Oct-07 22:28N 37°08' W 008°32'0 0.0
2017-Oct-07 21:54N 37°08' W 008°32'0 0.0
2017-Oct-07 21:29N 37°08' W 008°32'0 0.0
2017-Oct-07 20:58N 37°08' W 008°32'0 0.0
2017-Oct-07 20:23N 37°08' W 008°32'0 0.0
2017-Oct-07 20:00N 37°08' W 008°32'0 0.0
2017-Oct-07 19:23N 37°08' W 008°32'0 0.0
2017-Oct-07 18:56N 37°08' W 008°32'0 0.0
2017-Oct-07 18:26N 37°08' W 008°32'0 0.0
2017-Oct-07 17:55N 37°08' W 008°32'0 0.0
2017-Oct-07 17:30N 37°08' W 008°32'  

Dump ship's entire track history